Date,TemperatureHighF,TemperatureAvgF,TemperatureLowF,DewpointHighF,DewpointAvgF,DewpointLowF,HumidityHigh,HumidityAvg,HumidityLow,PressureMaxIn,PressureMinIn,WindSpeedMaxMPH,WindSpeedAvgMPH,GustSpeedMaxMPH,PrecipitationSumIn
2013-1-1,36.3,33.3,28.6,35.0,29.7,22.0,94,87,73,0.00,0.00,6,2,0,0.09
2013-1-2,39.6,27.2,21.0,23.0,18.4,12.0,92,71,41,0.00,0.00,6,2,0,0.00
2013-1-3,36.4,29.6,23.0,24.0,18.9,12.0,82,65,44,0.00,0.00,19,4,0,0.00
2013-1-4,38.2,33.3,30.9,27.0,23.4,21.0,76,67,52,0.00,0.00,18,5,0,0.00
2013-1-5,42.9,35.8,28.3,34.0,27.7,24.0,92,73,55,0.00,0.00,7,2,0,0.00
2013-1-6,40.5,35.7,28.8,33.0,28.2,21.0,84,74,69,0.00,0.00,24,6,0,0.00
2013-1-7,42.9,34.2,26.7,34.0,27.1,23.0,87,76,56,0.00,0.00,10,3,0,0.00
2013-1-8,53.3,41.8,30.4,42.0,33.1,26.0,90,73,49,0.00,0.00,10,4,0,0.00
2013-1-9,55.2,48.2,41.1,45.0,39.2,33.0,91,72,51,0.00,0.00,12,4,0,0.16
2013-1-10,48.7,41.2,33.7,44.0,36.4,31.0,93,83,70,0.00,0.00,6,1,0,0.18
2013-1-11,62.8,57.6,48.5,57.0,51.8,42.0,95,81,64,0.00,0.00,16,6,0,0.80
2013-1-12,67.0,61.6,56.8,65.0,56.3,-99.9,95,87,79,0.00,0.00,20,-16,0,0.02
2013-1-13,68.5,56.4,36.2,63.0,53.9,33.0,96,91,74,0.00,0.00,25,8,0,1.80
2013-1-14,35.7,28.6,24.6,33.0,23.9,20.0,90,83,73,0.00,0.00,16,5,0,0.00
2013-1-15,34.9,30.2,25.6,31.0,25.2,22.0,89,82,73,0.00,0.00,14,5,0,0.00
2013-1-16,37.3,33.9,31.2,30.0,28.5,27.0,91,81,69,0.00,0.00,6,3,0,0.00
2013-1-17,45.6,36.3,30.1,36.0,28.3,22.0,84,73,56,0.00,0.00,14,3,0,0.00
2013-1-18,42.2,33.2,24.7,31.0,22.8,16.0,80,66,48,0.00,0.00,15,4,0,0.00
2013-1-19,54.6,46.7,39.9,30.0,26.9,25.0,60,47,33,0.00,0.00,23,7,0,0.00
2013-1-20,47.9,36.0,28.1,36.0,17.6,8.0,67,48,32,0.00,0.00,29,9,0,0.00
2013-1-21,28.7,22.8,13.9,18.0,9.5,-3.0,72,57,43,0.00,0.00,25,10,0,0.00
2013-1-22,19.5,13.8,8.0,2.0,-0.8,-4.0,71,53,39,0.00,0.00,16,6,0,0.00
2013-1-23,25.3,20.1,15.3,17.0,5.5,0.0,71,53,47,0.00,0.00,13,3,0,0.00
2013-1-24,26.9,22.8,17.5,21.0,13.2,4.0,87,67,40,0.00,0.00,23,5,0,0.00
2013-1-25,28.0,25.3,21.3,24.0,18.8,11.0,90,77,57,0.00,0.00,10,2,0,0.00
2013-1-26,34.1,27.9,23.1,24.0,20.2,15.0,88,74,53,0.00,0.00,12,4,0,0.00
2013-1-27,41.3,33.4,23.6,40.0,27.7,19.0,94,80,64,0.00,0.00,12,2,0,0.35
2013-1-28,55.5,49.9,41.1,53.0,46.9,40.0,96,89,74,0.00,0.00,12,4,0,0.61
2013-1-29,66.6,61.4,55.1,61.0,55.9,52.0,90,82,73,0.00,0.00,19,6,0,0.00
2013-1-30,69.5,55.2,34.2,61.0,50.1,25.0,96,83,69,0.00,0.00,32,10,0,1.04
2013-1-31,33.7,28.2,18.5,25.0,18.6,13.0,88,68,52,0.00,0.00,23,11,0,0.00
2013-2-1,19.6,14.6,8.5,10.0,5.1,1.0,78,66,56,0.00,0.00,29,8,0,0.00
2013-2-2,31.9,25.0,16.4,28.0,20.7,9.0,93,84,71,0.00,0.00,14,4,0,0.00
2013-2-3,29.8,24.0,19.3,25.0,18.2,14.0,86,78,71,0.00,0.00,17,6,0,0.00
2013-2-4,37.1,29.8,21.8,35.0,26.4,18.0,94,87,70,0.00,0.00,10,3,0,0.26
2013-2-5,40.1,35.7,29.6,36.0,31.1,26.0,94,84,75,0.00,0.00,12,3,0,0.00
2013-2-6,39.4,36.4,33.7,34.0,30.0,27.0,88,78,68,0.00,0.00,12,3,0,0.00
2013-2-7,63.4,46.7,33.4,46.0,35.5,28.0,88,67,36,0.00,0.00,14,3,0,0.00
2013-2-8,54.5,39.3,33.5,46.0,32.9,24.0,90,78,61,0.00,0.00,26,10,0,0.17
2013-2-9,45.2,35.5,27.6,33.0,24.2,17.0,84,65,38,0.00,0.00,8,2,0,0.00
2013-2-10,57.2,45.8,36.4,47.0,35.4,22.0,90,68,42,0.00,0.00,20,7,0,0.04
2013-2-11,54.6,48.8,40.7,51.0,36.1,28.0,92,63,46,0.00,0.00,22,8,0,0.01
2013-2-12,50.6,41.5,32.6,30.0,26.3,22.0,78,57,34,0.00,0.00,7,2,0,0.00
2013-2-13,41.5,34.8,31.3,32.0,29.7,26.0,94,82,55,0.00,0.00,11,2,0,0.15
2013-2-14,53.7,42.3,34.3,40.0,34.0,30.0,91,74,48,0.00,0.00,18,5,0,0.02
2013-2-15,41.1,36.4,28.6,31.0,28.4,23.0,83,73,49,0.00,0.00,22,4,0,0.00
2013-2-16,28.7,25.7,21.6,24.0,16.5,10.0,84,69,51,0.00,0.00,21,7,0,0.00
2013-2-17,33.1,24.9,16.4,19.0,11.0,4.0,90,59,31,0.00,0.00,11,3,0,0.00
2013-2-18,60.4,43.5,27.1,42.0,28.5,14.0,79,58,39,0.00,0.00,19,6,0,0.19
2013-2-19,47.8,34.5,25.1,43.0,26.2,14.0,93,72,55,0.00,0.00,25,11,0,0.48
2013-2-20,29.9,24.6,20.3,23.0,13.4,10.0,83,63,51,0.00,0.00,20,8,0,0.00
2013-2-21,35.0,29.3,22.4,33.0,25.0,15.0,94,83,72,0.00,0.00,13,3,0,0.11
2013-2-22,45.2,38.9,31.9,39.0,35.8,29.0,96,89,76,0.00,0.00,11,3,0,0.18
2013-2-23,45.0,38.0,33.3,35.0,27.9,24.0,91,69,47,0.00,0.00,13,3,0,0.00
2013-2-24,43.9,35.0,27.4,31.0,24.8,22.0,89,68,47,0.00,0.00,12,4,0,0.00
2013-2-25,47.9,39.3,30.4,35.0,29.1,23.0,89,68,50,0.00,0.00,12,3,0,0.00
2013-2-26,52.8,44.7,39.2,52.0,40.1,28.0,95,84,61,0.00,0.00,15,4,0,0.99
2013-2-27,42.9,38.4,34.4,39.0,34.3,31.0,90,84,76,0.00,0.00,16,7,0,0.13
2013-2-28,37.7,35.5,33.3,34.0,31.7,29.0,90,85,80,0.00,0.00,18,6,0,0.02
2013-3-1,37.7,35.0,32.1,34.0,32.0,25.0,94,88,74,0.00,0.00,11,3,0,0.18
2013-3-2,33.3,30.5,28.2,30.0,25.5,21.0,92,81,72,0.00,0.00,11,4,0,0.00
2013-3-3,32.8,29.5,27.0,27.0,21.2,18.0,86,71,63,0.00,0.00,11,4,0,0.00
2013-3-4,44.7,34.9,23.7,33.0,23.5,19.0,85,65,38,0.00,0.00,7,2,0,0.00
2013-3-5,42.0,39.1,31.0,40.0,34.8,29.0,95,85,62,0.00,0.00,22,4,0,1.09
2013-3-6,33.2,31.4,29.2,31.0,28.6,27.0,95,89,84,0.00,0.00,17,9,0,0.00
2013-3-7,43.2,34.8,31.6,33.0,29.5,26.0,91,81,64,0.00,0.00,11,3,0,0.09
2013-3-8,46.9,39.1,29.8,36.0,30.5,24.0,88,72,46,0.00,0.00,7,2,0,0.00
2013-3-9,59.7,46.9,33.3,42.0,33.3,28.0,87,62,39,0.00,0.00,11,3,0,0.00
2013-3-10,69.0,61.1,54.3,44.0,38.3,34.0,57,44,31,0.00,40.00,15,7,0,0.06
2013-3-11,61.2,50.7,39.6,54.0,45.6,32.0,95,83,54,0.00,0.00,16,7,0,2.08
2013-3-12,46.4,39.7,35.3,33.0,28.9,26.0,88,66,47,0.00,0.00,20,6,0,0.00
2013-3-13,35.4,31.0,28.1,32.0,23.6,17.0,89,74,59,0.00,0.00,25,11,0,0.00
2013-3-14,44.9,34.9,25.3,24.0,19.6,11.0,82,57,31,0.00,0.00,7,2,0,0.00
2013-3-15,54.1,43.1,33.4,45.0,33.7,25.0,89,71,53,0.00,0.00,6,3,0,0.00
2013-3-16,61.4,50.3,40.1,51.0,44.2,35.0,90,80,64,0.00,0.00,25,7,0,0.21
2013-3-17,41.6,17.0,37.3,39.0,-42.3,-99.9,92,37,82,0.00,0.00,9,-579,0,0.02
2013-3-18,42.3,0.4,42.3,34.0,-98.5,-99.9,72,1,72,0.00,0.00,22,-988,0,0.00
2013-3-19,46.1,19.2,31.9,34.0,-45.9,-99.9,72,19,33,0.00,0.00,25,-538,0,0.00
2013-3-20,38.8,16.0,27.0,22.0,-45.8,-99.9,56,23,43,0.00,0.00,27,-530,0,0.00
2013-3-21,34.0,11.6,24.4,16.0,-57.5,-99.9,60,18,46,0.00,0.00,16,-624,0,0.00
2013-3-22,47.8,15.2,34.4,21.0,-56.5,-99.9,54,15,34,0.00,0.00,7,-637,0,0.00
2013-3-23,58.9,19.4,45.6,29.0,-53.4,-99.9,48,14,32,0.00,0.00,6,-633,0,0.00
2013-3-24,-200.0,0.0,200.0,-99.9,-99.9,-99.9,0,0,100,0.00,40.00,0,-999,0,0.00
2013-3-25,35.8,6.4,34.5,34.0,-75.9,-99.9,91,16,89,0.00,0.00,13,-817,0,0.02
2013-3-26,40.6,7.7,39.1,33.0,-74.8,-99.9,76,13,64,0.00,0.00,13,-804,0,0.00
2013-3-27,45.0,15.8,41.1,32.0,-52.7,-99.9,69,21,50,30.00,0.00,12,-632,0,0.00
2013-3-28,52.2,19.2,34.3,31.0,-50.8,-99.9,60,18,44,31.43,30.00,11,-596,0,0.00
2013-3-29,59.0,20.2,48.5,34.0,-50.7,-99.9,58,16,38,31.42,31.42,10,-629,0,0.00
2013-3-30,63.2,23.6,50.5,39.0,-45.7,-99.9,59,17,38,31.42,31.42,15,-603,0,0.00
2013-3-31,59.8,11.4,54.4,49.0,-71.1,-99.9,83,13,58,31.42,31.42,12,-800,0,0.00
2013-4-1,47.9,17.9,40.9,32.0,-49.8,-99.9,71,19,40,31.42,31.42,16,-598,0,0.00
2013-4-2,49.7,17.0,38.6,23.0,-54.5,-99.9,52,15,33,31.42,26.07,14,-622,0,0.00
2013-4-3,55.1,19.1,42.9,30.0,-52.9,-99.9,58,13,28,31.42,31.31,9,-610,0,0.00
2013-4-4,57.2,47.4,38.8,36.0,28.3,16.0,72,51,21,31.42,31.42,7,3,0,0.00
2013-4-5,61.2,40.1,40.9,38.0,-4.8,-99.9,59,29,29,31.42,31.42,16,-266,0,0.00
2013-4-6,69.8,47.3,43.5,43.0,13.9,-99.9,74,40,31,31.42,31.42,16,-156,0,0.00
2013-4-7,73.0,61.9,60.5,58.0,36.8,-99.9,84,46,39,31.42,29.98,16,-53,0,0.04
2013-4-8,73.7,52.6,57.1,56.0,21.5,-99.9,89,51,50,29.98,29.98,22,-204,0,0.00
2013-4-9,80.7,71.1,60.0,60.0,56.2,53.0,82,61,42,29.98,29.98,16,5,0,0.00
2013-4-10,83.7,75.6,68.3,63.0,60.4,58.0,74,60,46,29.98,29.98,17,6,0,0.00
2013-4-11,75.8,65.8,60.2,64.0,60.1,56.0,96,83,56,29.98,29.98,13,4,0,2.35
2013-4-12,60.6,48.4,42.0,59.0,39.4,31.0,96,72,54,29.98,29.98,26,8,0,0.35
2013-4-13,59.5,49.4,39.7,42.0,33.8,31.0,79,58,35,32.22,0.00,23,5,0,0.00
2013-4-14,71.6,59.1,44.4,52.0,44.1,37.0,85,60,36,31.96,27.37,12,4,0,0.00
2013-4-15,70.1,61.5,58.8,57.0,45.9,-99.9,75,63,51,31.45,27.61,17,-38,0,0.00
2013-4-16,82.6,67.8,60.9,68.0,60.2,54.0,94,78,59,31.37,29.02,19,6,0,0.96
2013-4-17,80.2,55.5,58.5,67.0,34.9,-99.9,96,71,59,31.95,0.00,17,-159,0,0.10
2013-4-18,83.6,32.6,65.4,66.0,-34.0,-99.9,82,22,45,31.45,27.59,30,-587,0,0.00
2013-4-19,47.0,13.1,44.3,36.0,-61.2,-99.9,71,19,62,32.01,20.09,19,-710,0,0.00
2013-4-20,51.5,19.9,42.9,32.0,-47.0,-99.9,63,20,42,32.01,27.60,15,-591,0,0.00
2013-4-21,58.7,48.4,39.0,40.0,34.0,-99.9,79,60,38,32.27,23.07,10,-7,0,0.00
2013-4-22,71.7,58.4,45.5,48.0,38.4,30.0,67,49,30,31.91,31.91,10,3,0,0.00
2013-4-23,71.1,62.2,51.0,55.0,49.0,42.0,79,63,49,31.91,31.91,17,4,0,0.00
2013-4-24,66.4,52.6,42.3,56.0,44.5,35.0,93,75,59,31.91,31.91,21,8,0,2.05
2013-4-25,59.7,49.1,38.5,38.0,34.8,30.0,88,61,35,31.91,31.30,22,5,0,0.00
2013-4-26,63.4,53.5,40.1,42.0,35.0,28.0,86,53,26,31.43,27.61,9,2,0,0.00
2013-4-27,63.9,57.0,47.2,54.0,45.2,37.0,82,66,43,32.10,27.60,15,3,0,0.00
2013-4-28,69.8,60.8,56.8,60.0,55.9,53.0,93,84,66,31.44,0.00,13,5,0,0.25
2013-4-29,65.6,60.1,56.3,56.0,54.8,53.0,94,83,65,31.41,28.67,7,2,0,0.08
2013-4-30,83.3,66.9,51.2,59.0,55.4,50.0,96,70,40,31.40,23.46,10,2,0,0.03
2013-5-1,85.2,72.0,58.3,64.0,58.1,55.0,88,64,39,30.13,30.13,9,2,0,0.00
2013-5-2,79.2,70.2,63.8,60.0,55.7,53.0,74,61,42,0.00,0.00,12,5,0,0.00
2013-5-3,76.1,69.5,63.4,61.0,56.2,47.0,80,64,47,0.00,0.00,14,4,0,0.00
2013-5-4,74.5,65.5,58.4,55.0,49.8,45.0,78,58,41,0.00,0.00,13,3,0,0.01
2013-5-5,58.9,56.7,53.8,55.0,52.1,50.0,93,84,73,0.00,0.00,13,3,0,2.60
2013-5-6,64.4,60.2,55.5,59.0,57.2,54.0,96,89,82,0.00,0.00,9,3,0,1.17
2013-5-7,73.8,63.4,58.6,62.0,58.1,55.0,95,84,53,0.00,0.00,11,4,0,0.18
2013-5-8,76.9,65.1,55.8,61.0,57.2,51.0,96,78,41,0.00,0.00,18,4,0,0.19
2013-5-9,82.6,70.4,60.6,61.0,56.3,51.0,87,64,35,0.00,0.00,8,2,0,0.00
2013-5-10,70.6,66.0,63.3,63.0,60.9,59.0,93,84,68,0.00,0.00,17,4,0,1.74
2013-5-11,63.5,55.0,50.0,62.0,49.8,44.0,94,83,68,0.00,0.00,18,5,0,0.90
2013-5-12,55.3,49.8,42.9,46.0,33.7,27.0,88,57,35,0.00,0.00,22,6,0,0.00
2013-5-13,61.7,53.9,43.6,40.0,33.0,27.0,82,48,27,0.00,0.00,24,4,0,0.00
2013-5-14,82.2,65.5,50.4,59.0,47.4,34.0,73,53,38,0.00,0.00,16,6,0,0.00
2013-5-15,90.6,78.5,70.1,59.0,57.6,54.0,67,50,31,0.00,0.00,17,6,0,0.00
2013-5-16,76.1,70.7,66.8,66.0,60.5,54.0,91,71,49,30.07,0.00,10,3,0,1.30
2013-5-17,83.4,69.8,62.6,68.0,64.2,59.0,95,83,57,30.07,30.07,7,2,0,0.50
2013-5-18,82.3,70.9,65.5,70.0,65.9,63.0,95,85,56,30.07,30.07,10,2,0,0.46
2013-5-19,86.0,74.7,65.6,71.0,66.7,64.0,96,78,51,30.07,30.07,8,3,0,0.01
2013-5-20,86.4,77.5,69.0,72.0,68.8,67.0,94,76,54,31.37,28.65,13,5,0,0.00
2013-5-21,85.0,76.9,69.7,70.0,65.4,62.0,83,69,47,31.37,31.37,16,6,0,0.00
2013-5-22,80.0,71.6,66.3,68.0,64.0,61.0,90,78,54,31.37,29.97,12,4,0,0.05
2013-5-23,69.9,64.6,56.1,65.0,58.1,50.0,94,80,59,29.97,29.97,20,6,0,0.44
2013-5-24,66.2,57.6,51.1,52.0,43.7,37.0,85,62,38,29.97,29.97,17,5,0,0.00
2013-5-25,66.9,58.8,50.9,48.0,44.5,39.0,85,61,39,29.97,29.97,6,2,0,0.00
2013-5-26,72.5,64.2,58.2,54.0,49.1,44.0,76,59,39,29.97,29.97,6,2,0,0.00
2013-5-27,84.0,71.2,57.7,63.0,55.2,48.0,86,59,35,29.97,29.97,14,4,0,0.19
2013-5-28,84.5,77.7,69.6,66.0,61.4,58.0,78,58,42,29.97,29.97,18,5,0,0.00
2013-5-29,87.3,79.0,70.7,68.0,61.8,57.0,73,57,38,29.97,29.97,16,5,0,0.00
2013-5-30,87.0,79.7,71.2,71.0,66.8,63.0,81,66,50,31.39,23.37,14,6,0,0.00
2013-5-31,82.9,74.6,69.4,71.0,67.1,63.0,94,78,59,31.40,28.86,16,7,0,1.28
2013-6-1,81.1,75.1,70.8,71.0,67.8,64.0,93,78,57,31.39,27.59,16,6,0,0.01
2013-6-2,79.0,72.0,67.1,67.0,61.2,58.0,87,70,49,31.40,28.86,18,6,0,0.00
2013-6-3,70.1,64.7,58.1,61.0,53.9,50.0,85,69,52,32.41,20.43,16,5,0,0.00
2013-6-4,74.8,66.8,58.4,55.0,51.5,47.0,83,60,38,32.31,23.91,10,3,0,0.00
2013-6-5,83.0,71.4,60.8,66.0,58.3,51.0,80,64,45,31.47,20.26,12,3,0,0.00
2013-6-6,76.3,64.2,66.2,68.0,51.9,-99.9,94,79,71,31.98,0.00,10,-80,0,1.38
2013-6-7,75.7,67.8,60.3,64.0,60.2,57.0,94,78,56,31.40,26.05,12,4,0,0.00
2013-6-8,77.9,70.3,62.2,66.0,61.4,57.0,89,74,55,31.40,22.78,9,2,0,0.00
2013-6-9,80.8,73.1,66.6,70.0,65.1,61.0,89,77,54,31.39,20.43,14,5,0,0.18
2013-6-10,79.6,64.7,65.8,68.0,49.0,-99.9,95,72,51,31.98,20.43,14,-90,0,0.79
2013-6-11,86.7,75.8,65.2,67.0,63.7,60.0,90,68,45,32.33,20.27,15,3,0,0.00
2013-6-12,95.1,82.8,74.2,75.0,70.9,67.0,81,68,48,30.11,20.27,11,3,0,0.00
2013-6-13,84.0,75.6,67.2,73.0,62.3,-99.9,96,67,46,31.86,0.00,20,-14,0,0.87
2013-6-14,82.7,72.1,60.7,63.0,57.9,54.0,80,62,47,31.68,27.64,11,3,0,0.00
2013-6-15,86.5,61.3,63.7,67.0,31.9,-99.9,86,53,49,30.10,0.00,15,-187,0,0.00
2013-6-16,79.6,51.6,71.0,71.0,13.8,-99.9,92,53,67,31.39,22.91,9,-311,0,0.02
2013-6-17,90.6,77.8,68.3,73.0,67.5,64.0,94,73,44,31.39,22.56,11,2,0,0.00
2013-6-18,85.9,74.0,69.0,69.0,65.0,62.0,88,74,51,31.39,20.28,9,2,0,0.02
2013-6-19,81.8,73.3,64.1,66.0,59.7,54.0,84,64,41,32.26,21.22,13,4,0,0.00
2013-6-20,88.2,76.6,64.3,65.0,60.3,57.0,83,59,37,31.40,20.25,6,2,0,0.00
2013-6-21,89.0,79.1,67.5,70.0,64.0,61.0,81,61,43,31.39,20.26,11,2,0,0.00
2013-6-22,89.7,79.5,72.8,72.0,68.4,65.0,85,70,50,31.39,29.96,11,3,0,0.02
2013-6-23,90.4,78.2,70.2,72.0,67.5,65.0,90,71,43,31.37,28.66,13,2,0,0.48
2013-6-24,86.8,79.1,70.6,71.0,68.9,66.0,88,72,54,31.37,31.37,15,3,0,0.00
2013-6-25,92.1,81.5,70.6,75.0,70.7,68.0,92,71,50,31.37,31.37,14,3,0,0.00
2013-6-26,86.6,75.0,68.6,75.0,68.8,65.0,94,82,60,31.41,0.00,27,4,0,1.81
2013-6-27,85.0,75.6,68.3,72.0,69.0,66.0,95,81,59,32.23,24.80,19,5,0,0.27
2013-6-28,84.8,76.7,68.2,71.0,64.7,58.0,84,68,41,31.40,28.85,21,7,0,0.15
2013-6-29,77.2,70.9,65.9,69.0,65.0,61.0,92,82,67,31.37,0.00,10,2,0,0.78
2013-6-30,82.1,72.5,66.0,70.0,65.6,62.0,95,80,52,29.97,29.97,14,3,0,0.61
2013-7-1,78.3,71.1,67.1,70.0,66.8,63.0,95,86,70,29.97,29.97,16,4,0,5.69
2013-7-2,83.6,74.0,66.9,69.0,67.7,66.0,97,82,55,29.97,29.97,11,3,0,0.00
2013-7-3,81.7,76.4,71.2,72.0,68.8,66.0,88,78,61,31.88,20.26,11,3,0,0.03
2013-7-4,73.7,71.3,68.9,71.0,68.4,66.0,96,90,83,31.40,20.26,13,3,0,2.47
2013-7-5,78.3,72.4,67.2,72.0,69.0,65.0,96,89,78,31.40,0.00,8,3,0,0.23
2013-7-6,79.4,71.9,68.6,73.0,69.3,67.0,97,92,77,31.98,20.26,11,2,0,4.12
2013-7-7,84.3,75.1,67.5,69.0,67.1,66.0,95,78,54,32.09,20.26,6,2,0,0.00
2013-7-8,88.8,79.3,71.0,72.0,69.0,67.0,89,72,55,31.39,20.01,10,2,0,0.00
2013-7-9,90.1,83.3,77.4,78.0,72.7,70.0,80,71,58,31.38,28.00,11,4,0,0.04
2013-7-10,90.4,80.6,72.7,77.0,73.8,68.0,94,80,63,32.29,0.00,19,3,0,0.42
2013-7-11,82.3,75.0,69.7,73.0,66.2,60.0,96,76,55,32.29,22.78,19,4,0,0.04
2013-7-12,80.6,73.7,65.0,65.0,60.3,56.0,79,64,46,30.14,20.43,15,5,0,0.00
2013-7-13,84.4,77.2,69.9,72.0,67.0,62.0,82,71,55,31.88,0.00,13,4,0,0.00
2013-7-14,91.3,81.7,73.5,75.0,71.5,67.0,85,72,56,31.39,22.77,14,3,0,0.10
2013-7-15,92.7,83.7,75.9,75.0,72.2,69.0,89,70,47,31.64,28.84,10,3,0,0.00
2013-7-16,95.2,85.6,75.5,75.0,71.8,69.0,89,65,44,31.87,26.31,6,1,0,0.00
2013-7-17,92.2,84.8,77.3,78.0,74.6,72.0,87,72,53,32.46,28.07,8,2,0,0.16
2013-7-18,94.7,86.8,77.8,77.0,72.5,68.0,87,64,43,30.44,22.74,7,2,0,0.00
2013-7-19,90.3,83.9,78.6,77.0,74.2,68.0,85,73,59,32.29,24.05,13,2,0,0.48
2013-7-20,89.8,80.4,72.5,74.0,71.1,64.0,83,74,56,32.29,23.04,22,4,0,0.10
2013-7-21,87.0,78.7,71.9,74.0,70.6,67.0,89,77,59,31.97,22.77,6,2,0,0.57
2013-7-22,83.5,75.0,70.6,74.0,70.8,68.0,95,87,66,24.83,21.88,11,2,0,2.69
2013-7-23,87.5,78.1,71.0,74.0,71.6,69.0,95,81,63,23.45,21.43,15,3,0,0.09
2013-7-24,78.4,70.4,61.2,69.0,61.5,57.0,88,74,58,32.23,21.07,12,4,0,0.00
2013-7-25,78.7,70.5,62.0,61.0,57.3,52.0,82,64,40,32.47,22.55,10,3,0,0.00
2013-7-26,82.9,73.1,62.7,64.0,60.0,57.0,88,65,45,32.47,23.05,9,2,0,0.00
2013-7-27,76.8,70.7,64.6,66.0,62.3,56.0,91,76,52,32.47,21.73,16,4,0,0.74
2013-7-28,74.4,66.1,57.7,56.0,51.2,47.0,82,60,39,32.46,25.23,12,4,0,0.00
2013-7-29,79.4,70.5,60.6,60.0,55.1,52.0,80,59,43,32.46,22.78,13,2,0,0.00
2013-7-30,82.3,72.3,62.5,65.0,61.3,57.0,89,70,42,23.46,22.91,7,2,0,0.00
2013-7-31,77.9,71.4,66.0,69.0,66.1,63.0,95,83,72,32.37,22.68,9,3,0,0.21
2013-8-1,81.6,74.5,68.9,69.0,63.1,54.0,93,70,41,32.46,22.78,16,5,0,0.00
2013-8-2,84.2,75.1,64.3,66.0,60.8,56.0,84,62,44,32.35,24.73,10,2,0,0.00
2013-8-3,81.3,75.1,69.1,70.0,66.2,61.0,90,74,54,32.48,24.73,9,2,0,0.24
2013-8-4,78.9,72.1,64.1,64.0,57.4,52.0,78,61,41,32.34,23.32,11,4,0,0.00
2013-8-5,83.6,72.8,61.9,61.0,58.2,54.0,87,63,37,32.46,22.78,10,2,0,0.00
2013-8-6,83.9,75.6,69.0,71.0,64.8,60.0,82,69,59,32.45,22.77,10,4,0,0.00
2013-8-7,85.8,78.7,71.0,75.0,71.9,69.0,95,80,65,32.36,23.31,9,3,0,0.00
2013-8-8,88.8,78.7,72.3,75.0,72.2,69.0,95,81,60,32.36,0.00,20,2,0,0.57
2013-8-9,83.1,76.1,69.7,74.0,71.1,68.0,97,85,64,32.38,22.77,10,2,0,0.38
2013-8-10,87.4,79.0,72.5,73.0,69.9,66.0,91,75,51,32.45,20.25,9,2,0,0.00
2013-8-11,86.4,79.6,73.6,73.0,68.7,63.0,91,71,48,32.45,20.28,15,3,0,0.00
2013-8-12,87.0,77.6,70.0,74.0,68.7,65.0,91,75,53,32.38,23.05,5,2,0,0.00
2013-8-13,78.7,73.9,65.0,73.0,64.9,52.0,90,74,55,32.37,22.68,19,5,0,0.00
2013-8-14,71.3,64.5,56.7,54.0,50.4,47.0,81,62,43,32.37,23.00,9,4,0,0.00
2013-8-15,75.8,66.7,57.9,60.0,54.1,51.0,81,65,46,32.37,22.53,6,3,0,0.00
2013-8-16,78.5,70.3,60.9,61.0,56.1,54.0,78,62,45,26.00,22.78,13,4,0,0.00
2013-8-17,83.9,73.1,63.4,68.0,60.3,55.0,78,65,45,30.33,22.78,9,3,0,0.00
2013-8-18,83.1,74.2,65.2,70.0,64.1,59.0,87,72,47,32.37,21.90,10,3,0,0.00
2013-8-19,85.9,75.9,66.6,69.0,64.3,58.0,93,70,42,31.88,20.25,7,2,0,0.00
2013-8-20,87.1,77.8,67.7,73.0,66.6,64.0,90,70,48,32.45,20.28,9,2,0,0.00
2013-8-21,87.1,78.6,72.4,74.0,69.9,67.0,90,75,56,32.38,22.15,6,3,0,0.01
2013-8-22,86.9,77.8,70.6,73.0,69.1,65.0,91,75,51,32.38,22.67,15,3,0,0.10
2013-8-23,88.5,76.4,68.8,71.0,68.0,65.0,93,77,51,32.35,20.28,11,3,0,0.28
2013-8-24,86.7,77.0,67.9,70.0,64.3,59.0,79,66,44,32.30,22.78,11,3,0,0.00
2013-8-25,87.4,76.9,65.8,66.0,61.5,55.0,89,62,34,31.39,20.43,8,2,0,0.00
2013-8-26,89.2,79.3,69.3,72.0,66.3,61.0,82,66,45,32.38,20.26,11,2,0,0.00
2013-8-27,89.5,81.5,73.5,75.0,72.4,70.0,90,74,58,32.48,21.12,9,3,0,0.00
2013-8-28,102.7,83.8,75.3,76.0,72.9,69.0,91,72,36,32.36,21.73,20,6,0,0.07
2013-8-29,86.0,80.5,75.3,76.0,72.9,70.0,90,78,64,32.39,23.16,10,3,0,0.00
2013-8-30,89.4,80.7,71.2,73.0,69.1,66.0,92,70,47,32.38,22.31,12,2,0,0.00
2013-8-31,91.9,75.9,69.3,77.0,64.6,-99.9,97,76,55,32.35,21.90,12,-39,0,3.04
2013-9-1,85.7,77.2,69.8,74.0,70.1,67.0,94,79,60,32.35,23.31,9,3,0,0.01
2013-9-2,87.0,78.6,72.1,73.0,69.3,61.0,93,74,51,27.59,23.29,16,4,0,0.00
2013-9-3,75.4,69.4,62.0,63.0,58.1,53.0,87,68,51,32.37,22.96,14,4,0,0.00
2013-9-4,81.9,71.5,60.4,62.0,59.2,57.0,91,67,44,32.36,21.13,7,1,0,0.00
2013-9-5,85.7,75.0,64.0,66.0,60.9,56.0,91,64,39,32.37,23.45,11,2,0,0.00
2013-9-6,83.9,70.9,60.7,62.0,53.3,45.0,77,56,30,32.37,20.63,7,3,0,0.00
2013-9-7,87.2,75.4,63.0,71.0,61.9,56.0,84,64,47,32.41,23.45,9,2,0,0.00
2013-9-8,91.3,80.7,71.8,72.0,67.2,65.0,84,65,43,32.38,20.58,7,1,0,0.00
2013-9-9,90.9,82.1,72.6,76.0,70.3,67.0,93,69,46,32.38,0.00,12,4,0,0.00
2013-9-10,92.5,83.9,77.1,76.0,72.4,70.0,88,69,52,32.38,22.67,9,3,0,0.00
2013-9-11,90.1,81.6,74.7,74.0,71.1,69.0,84,71,55,32.38,23.34,8,2,0,0.00
2013-9-12,79.4,75.5,69.3,73.0,69.3,64.0,90,81,62,32.25,22.77,22,4,0,0.57
2013-9-13,69.9,62.5,57.8,65.0,50.6,44.0,87,66,49,32.37,22.68,13,5,0,0.00
2013-9-14,71.1,60.6,50.3,53.0,46.4,42.0,82,61,37,32.33,22.69,9,3,0,0.00
2013-9-15,77.9,66.2,52.7,64.0,53.7,49.0,89,66,45,32.36,22.78,11,2,0,0.00
2013-9-16,72.7,65.8,61.3,63.0,57.4,52.0,91,75,56,31.45,20.62,11,4,0,0.06
2013-9-17,77.7,65.3,55.0,61.0,55.0,51.0,88,71,47,32.36,20.62,11,4,0,0.00
2013-9-18,80.2,69.6,63.0,70.0,62.5,54.0,93,78,62,32.35,23.46,11,2,0,0.01
2013-9-19,79.2,72.2,66.9,71.0,67.8,65.0,95,86,67,32.37,22.99,10,3,0,0.36
2013-9-20,86.0,75.0,68.2,72.0,68.8,67.0,96,82,56,31.77,23.31,9,4,0,4.71
2013-9-21,72.7,66.4,60.2,67.0,58.3,49.0,97,77,45,30.28,29.11,18,5,0,3.89
2013-9-22,67.9,60.7,53.0,52.0,47.6,43.0,83,64,42,32.31,20.86,11,4,0,0.00
2013-9-23,71.2,60.9,51.7,54.0,50.2,47.0,86,69,50,32.36,21.86,10,4,0,0.00
2013-9-24,75.6,62.7,51.7,63.0,53.9,48.0,90,74,57,32.29,21.91,9,3,0,0.00
2013-9-25,77.6,66.7,59.0,61.0,56.0,52.0,84,69,51,32.29,22.40,7,2,0,0.00
2013-9-26,79.9,66.3,53.6,64.0,56.6,51.0,90,73,50,32.47,0.00,6,1,0,0.00
2013-9-27,81.4,68.9,58.7,61.0,54.8,51.0,86,63,36,32.34,23.43,5,2,0,0.00
2013-9-28,82.2,69.4,56.4,65.0,57.9,54.0,90,69,41,30.28,23.05,8,2,0,0.00
2013-9-29,70.1,65.6,62.8,65.0,60.1,58.0,91,83,69,32.36,23.35,11,3,0,0.07
2013-9-30,75.3,67.9,62.4,66.0,61.9,60.0,94,82,65,32.49,23.41,6,2,0,0.04
2013-10-1,78.5,70.6,62.3,65.0,62.0,59.0,91,75,59,32.47,23.46,9,2,0,0.00
2013-10-2,80.2,71.4,64.7,70.0,65.9,62.0,94,83,68,32.44,22.84,6,1,0,0.00
2013-10-3,82.4,74.2,69.8,72.0,68.8,65.0,95,84,58,32.44,20.26,10,3,0,0.58
2013-10-4,84.6,76.1,67.7,72.0,67.7,65.0,94,77,55,32.37,22.77,10,3,0,0.00
2013-10-5,80.8,73.6,69.1,72.0,69.1,67.0,96,86,69,32.37,22.91,12,3,0,1.58
2013-10-6,73.9,65.4,55.0,70.0,63.6,52.0,97,94,85,32.38,24.14,13,4,0,3.11
2013-10-7,61.6,55.0,49.1,54.0,45.7,43.0,91,72,54,32.48,21.91,14,4,0,0.00
2013-10-8,68.4,58.0,47.9,53.0,48.7,45.0,95,74,46,32.25,22.79,11,2,0,0.03
2013-10-9,73.9,61.8,52.2,56.0,50.0,46.0,84,67,37,32.33,20.60,9,2,0,0.00
2013-10-10,74.0,61.2,49.9,53.0,48.5,43.0,89,66,36,24.94,0.00,4,1,0,0.00
2013-10-11,79.9,64.7,52.1,58.0,52.2,47.0,95,68,34,30.30,23.18,3,0,0,0.01
2013-10-12,79.6,66.9,55.5,64.0,57.4,53.0,93,74,40,32.39,23.32,5,1,0,0.00
2013-10-13,74.0,66.0,58.5,64.0,56.6,43.0,95,74,48,32.34,23.46,10,3,0,0.02
2013-10-14,72.6,61.8,51.1,56.0,47.8,42.0,78,61,42,32.48,23.46,10,2,0,0.00
2013-10-15,74.9,66.0,57.1,65.0,60.1,52.0,96,82,68,27.88,23.46,10,3,0,0.00
2013-10-16,68.4,63.6,54.5,64.0,57.8,48.0,94,82,65,27.18,23.46,13,3,0,0.38
2013-10-17,55.2,52.0,48.5,49.0,46.6,44.0,91,82,73,32.50,23.47,14,2,0,0.18
2013-10-18,65.2,55.6,47.1,51.0,45.6,43.0,89,71,46,32.22,22.04,10,2,0,0.00
2013-10-19,56.6,49.3,45.3,48.0,44.0,39.0,92,82,70,32.47,22.79,16,2,0,0.54
2013-10-20,62.1,51.8,41.6,47.0,41.0,38.0,88,68,47,32.20,20.30,11,4,0,0.00
2013-10-21,65.4,56.4,46.8,48.0,43.6,40.0,88,64,40,32.33,23.39,18,5,0,0.00
2013-10-22,52.8,47.1,38.6,48.0,33.3,26.0,90,61,37,32.33,0.00,16,3,0,0.27
2013-10-23,49.9,44.1,38.3,44.0,36.4,29.0,94,75,52,31.43,28.69,21,6,0,0.14
2013-10-24,44.6,40.6,37.4,37.0,33.3,30.0,90,76,58,31.43,28.89,18,5,0,0.00
2013-10-25,48.9,40.9,33.3,34.0,28.5,24.0,83,63,41,31.44,22.80,14,4,0,0.00
2013-10-26,53.7,44.9,35.9,40.0,31.6,27.0,72,61,51,32.49,22.80,13,4,0,0.00
2013-10-27,59.2,49.3,39.8,44.0,37.4,32.0,93,66,38,31.43,21.93,7,1,0,0.00
2013-10-28,63.7,50.1,38.5,48.0,37.9,34.0,92,67,35,32.49,0.00,5,1,0,0.00
2013-10-29,58.2,51.5,43.1,51.0,42.4,36.0,82,71,60,31.43,0.00,5,1,0,0.00
2013-10-30,66.2,60.2,53.8,65.0,58.8,51.0,97,95,82,23.35,0.00,13,3,0,0.27
2013-10-31,67.0,65.2,59.1,64.0,60.2,55.0,93,84,74,32.24,0.00,20,8,0,1.63
2013-11-1,63.5,58.0,51.2,55.0,47.7,43.0,90,70,48,32.22,20.27,22,6,0,0.08
2013-11-2,56.2,51.1,45.3,43.0,39.8,35.0,84,66,48,31.62,20.27,19,7,0,0.00
2013-11-3,57.5,48.1,42.2,46.0,39.0,35.0,88,72,47,31.43,23.40,11,2,0,0.00
2013-11-4,60.4,52.1,43.5,50.0,42.2,35.0,85,70,52,31.42,22.13,11,4,0,0.00
2013-11-5,63.5,58.1,52.4,51.0,46.8,43.0,82,67,49,31.42,28.87,12,4,0,0.00
2013-11-6,66.7,58.5,47.6,59.0,50.8,40.0,94,77,58,31.41,23.39,25,6,0,1.13
2013-11-7,49.0,44.6,40.3,44.0,32.9,25.0,91,66,41,31.43,28.68,17,6,0,0.09
2013-11-8,51.8,43.0,33.7,37.0,31.0,28.0,87,65,40,31.43,0.00,20,4,0,0.00
2013-11-9,61.7,51.1,39.5,40.0,34.0,29.0,77,54,36,31.44,28.88,14,6,0,0.00
2013-11-10,53.1,47.3,39.4,42.0,32.7,24.0,80,58,41,31.43,27.38,24,7,0,0.00
2013-11-11,60.5,47.2,36.0,45.0,33.5,24.0,91,64,25,31.43,22.39,17,4,0,0.08
2013-11-12,39.7,33.1,29.3,38.0,26.0,20.0,95,76,52,31.44,30.00,12,5,0,0.08
2013-11-13,43.9,33.1,25.7,25.0,21.2,17.0,85,64,38,31.44,0.00,7,2,0,0.00
2013-11-14,55.0,42.9,32.5,30.0,22.2,19.0,69,47,25,32.50,20.28,11,3,0,0.00
2013-11-15,54.2,48.6,41.3,48.0,32.8,21.0,90,57,36,31.43,0.00,11,4,0,0.01
2013-11-16,62.3,55.4,49.5,58.0,52.3,47.0,95,89,83,31.41,28.87,14,6,0,0.00
2013-11-17,65.7,61.5,55.6,63.0,57.1,40.0,96,86,55,31.52,20.25,23,10,0,2.07
2013-11-18,55.1,48.6,40.2,41.0,34.6,28.0,77,60,42,32.23,21.00,27,10,0,0.00
2013-11-19,42.8,38.4,33.2,35.0,30.4,27.0,85,73,62,32.27,20.25,10,3,0,0.00
2013-11-20,53.4,43.4,33.5,42.0,33.6,27.0,88,69,49,32.33,20.22,9,3,0,0.00
2013-11-21,56.9,51.4,45.3,52.0,42.2,34.0,90,71,59,31.44,0.00,11,4,0,0.09
2013-11-22,56.7,50.9,40.4,56.0,47.5,33.0,96,88,73,31.31,0.00,22,5,0,0.33
2013-11-23,41.6,33.6,26.4,38.0,24.9,15.0,91,72,39,30.00,30.00,24,7,0,0.00
2013-11-24,29.6,24.9,19.6,24.0,15.0,8.0,88,67,52,31.33,20.12,13,3,0,0.00
2013-11-25,40.9,32.3,23.4,31.0,20.5,16.0,88,64,40,31.45,20.12,10,3,0,0.00
2013-11-26,36.5,34.3,32.9,35.0,31.3,28.0,94,88,78,0.00,0.00,11,2,0,0.20
2013-11-27,35.3,29.0,24.3,32.0,21.6,14.0,90,74,62,0.00,0.00,22,8,0,0.01
2013-11-28,35.9,28.4,21.7,23.0,17.1,13.0,80,63,49,31.33,0.00,6,2,0,0.00
2013-11-29,41.6,32.8,24.1,32.0,24.3,19.0,87,72,52,31.32,28.71,8,1,0,0.00
2013-11-30,52.3,40.0,29.0,37.0,29.0,24.0,85,67,45,31.43,27.59,10,2,0,0.00
2013-12-1,53.6,48.1,43.1,43.0,34.0,29.0,68,59,53,31.43,31.30,8,2,0,0.00
2013-12-2,53.4,48.0,42.2,44.0,39.3,36.0,87,72,61,31.96,0.00,6,2,0,0.00
2013-12-3,55.8,48.8,39.6,52.0,45.0,37.0,94,86,78,31.43,31.43,11,2,0,0.00
2013-12-4,65.0,57.8,50.5,61.0,54.7,47.0,94,89,82,31.41,0.00,16,7,0,0.00
2013-12-5,65.8,48.6,33.6,62.0,44.8,29.0,95,87,73,31.97,23.39,20,6,0,1.96
2013-12-6,36.8,31.8,28.1,35.0,30.6,27.0,97,95,86,31.97,31.97,13,3,0,0.31
2013-12-7,31.2,26.6,22.8,30.0,24.4,19.0,96,91,81,31.97,23.47,9,2,0,0.00
2013-12-8,34.9,28.9,23.8,34.0,27.5,20.0,97,94,84,31.45,27.57,9,3,0,0.00
2013-12-9,33.7,30.7,26.4,33.0,27.9,21.0,97,89,80,31.44,28.83,14,3,0,0.00
2013-12-10,29.6,24.8,21.1,25.0,18.8,16.0,92,78,64,31.45,0.00,12,5,0,0.00
2013-12-11,36.0,26.9,20.0,26.0,20.4,14.0,93,77,63,31.45,0.00,19,5,0,0.01
2013-12-12,25.6,19.7,11.2,18.0,8.9,4.0,85,64,43,32.32,0.00,13,3,0,0.00
2013-12-13,40.3,31.7,22.6,32.0,19.7,13.0,86,62,48,31.46,28.90,7,2,0,0.03
2013-12-14,40.3,37.6,32.9,40.0,35.8,31.0,97,93,80,31.45,22.74,18,3,0,0.69
2013-12-15,32.5,29.7,28.2,30.0,24.4,22.0,91,81,68,0.00,0.00,19,8,0,0.00
2013-12-16,37.7,33.3,28.5,35.0,30.2,24.0,94,88,81,0.00,0.00,10,2,0,0.06
2013-12-17,38.0,32.9,29.6,34.0,28.4,25.0,91,83,75,0.00,0.00,18,4,0,0.00
2013-12-18,39.1,32.9,26.3,27.0,21.9,18.0,87,66,43,31.44,0.00,16,5,0,0.00
2013-12-19,58.2,49.2,38.8,45.0,33.0,21.0,69,54,47,31.42,30.14,14,5,0,0.00
2013-12-20,61.6,56.3,51.9,59.0,48.7,38.0,92,77,51,31.41,31.41,14,6,0,0.02
2013-12-21,68.6,62.7,59.4,65.0,60.7,58.0,97,93,85,31.44,0.00,25,8,0,2.86
2013-12-22,63.1,53.0,40.1,62.0,49.4,35.0,97,88,73,31.43,0.00,21,8,0,0.81
2013-12-23,40.1,32.3,25.9,36.0,25.6,19.0,90,76,67,31.43,31.31,20,9,0,0.02
2013-12-24,26.8,20.4,14.3,21.0,12.7,8.0,84,72,62,31.31,31.31,18,6,0,0.00
2013-12-25,37.8,29.2,21.4,28.0,19.0,15.0,90,68,44,31.31,31.31,10,3,0,0.00
2013-12-26,41.2,36.1,32.0,28.0,24.4,22.0,78,63,47,31.31,31.31,19,5,0,0.00
2013-12-27,49.2,40.5,32.9,32.0,28.1,25.0,74,62,49,31.31,31.31,7,2,0,0.00
2013-12-28,52.7,45.1,38.3,38.0,31.5,29.0,77,60,45,31.31,31.31,7,3,0,0.00
2013-12-29,46.1,40.4,33.2,40.0,36.1,30.0,93,85,58,31.31,31.31,22,5,0,0.91
2013-12-30,33.1,28.0,24.8,30.0,21.0,16.0,88,75,67,31.31,31.31,20,6,0,0.00
2013-12-31,35.0,29.4,25.0,26.0,18.8,16.0,76,65,52,31.31,31.31,17,4,0,0.00
2014-1-1,48.5,38.5,30.3,35.0,27.6,23.0,92,67,44,31.44,28.89,9,2,0,0.00
2014-1-2,41.1,27.5,15.0,34.0,24.6,12.0,96,89,62,30.01,30.01,17,4,0,0.76